sensor_id;sensor_type;location;lat;lon;timestamp;temperature;humidity
5130;DHT22;2583;50.946;6.954;2023-04-01T00:01:19;11.70;99.90
5130;DHT22;2583;50.946;6.954;2023-04-01T00:03:46;11.70;99.90
5130;DHT22;2583;50.946;6.954;2023-04-01T00:06:15;11.70;99.90
5130;DHT22;2583;50.946;6.954;2023-04-01T00:08:43;11.70;99.90
5130;DHT22;2583;50.946;6.954;2023-04-01T00:11:11;11.70;99.90
5130;DHT22;2583;50.946;6.954;2023-04-01T00:13:38;11.70;99.90
5130;DHT22;2583;50.946;6.954;2023-04-01T00:16:05;11.70;99.90
5130;DHT22;2583;50.946;6.954;2023-04-01T00:18:47;11.70;99.90
5130;DHT22;2583;50.946;6.954;2023-04-01T00:21:15;11.70;99.90
5130;DHT22;2583;50.946;6.954;2023-04-01T00:23:42;11.70;99.90
5130;DHT22;2583;50.946;6.954;2023-04-01T00:26:10;11.70;99.90
5130;DHT22;2583;50.946;6.954;2023-04-01T00:28:39;11.70;99.90
5130;DHT22;2583;50.946;6.954;2023-04-01T00:31:08;11.70;99.90
5130;DHT22;2583;50.946;6.954;2023-04-01T00:33:35;11.70;99.90
5130;DHT22;2583;50.946;6.954;2023-04-01T00:36:21;11.70;99.90
5130;DHT22;2583;50.946;6.954;2023-04-01T00:38:49;11.70;99.90
5130;DHT22;2583;50.946;6.954;2023-04-01T00:41:16;11.70;99.90
5130;DHT22;2583;50.946;6.954;2023-04-01T00:43:45;11.70;99.90
5130;DHT22;2583;50.946;6.954;2023-04-01T00:46:12;11.70;99.90
5130;DHT22;2583;50.946;6.954;2023-04-01T00:48:43;11.70;99.90
5130;DHT22;2583;50.946;6.954;2023-04-01T00:51:23;11.70;99.90
5130;DHT22;2583;50.946;6.954;2023-04-01T00:53:53;11.70;99.90
5130;DHT22;2583;50.946;6.954;2023-04-01T00:56:24;11.70;99.90
5130;DHT22;2583;50.946;6.954;2023-04-01T00:59:00;11.70;99.90
5130;DHT22;2583;50.946;6.954;2023-04-01T01:01:28;11.70;99.90
5130;DHT22;2583;50.946;6.954;2023-04-01T01:03:56;11.70;99.90
5130;DHT22;2583;50.946;6.954;2023-04-01T01:06:46;11.70;99.90
5130;DHT22;2583;50.946;6.954;2023-04-01T01:17:31;11.70;99.90
5130;DHT22;2583;50.946;6.954;2023-04-01T01:31:36;11.70;99.90
5130;DHT22;2583;50.946;6.954;2023-04-01T01:34:28;11.70;99.90
5130;DHT22;2583;50.946;6.954;2023-04-01T01:37:09;11.70;99.90
5130;DHT22;2583;50.946;6.954;2023-04-01T01:39:37;11.70;99.90
5130;DHT22;2583;50.946;6.954;2023-04-01T01:42:07;11.70;99.90
5130;DHT22;2583;50.946;6.954;2023-04-01T01:44:37;11.60;99.90
5130;DHT22;2583;50.946;6.954;2023-04-01T01:47:05;11.60;99.90
5130;DHT22;2583;50.946;6.954;2023-04-01T01:49:33;11.60;99.90
5130;DHT22;2583;50.946;6.954;2023-04-01T01:52:02;11.60;99.90
5130;DHT22;2583;50.946;6.954;2023-04-01T01:54:30;11.60;99.90
5130;DHT22;2583;50.946;6.954;2023-04-01T01:57:06;11.50;99.90
5130;DHT22;2583;50.946;6.954;2023-04-01T01:59:35;11.50;99.90
5130;DHT22;2583;50.946;6.954;2023-04-01T02:02:04;11.50;99.90
5130;DHT22;2583;50.946;6.954;2023-04-01T02:04:36;11.40;99.90
5130;DHT22;2583;50.946;6.954;2023-04-01T02:07:20;11.40;99.90
5130;DHT22;2583;50.946;6.954;2023-04-01T02:09:48;11.40;99.90
5130;DHT22;2583;50.946;6.954;2023-04-01T02:12:17;11.40;99.90
5130;DHT22;2583;50.946;6.954;2023-04-01T02:14:58;11.30;99.90
5130;DHT22;2583;50.946;6.954;2023-04-01T02:17:29;11.30;99.90
5130;DHT22;2583;50.946;6.954;2023-04-01T02:20:18;11.20;99.90
5130;DHT22;2583;50.946;6.954;2023-04-01T02:22:56;11.20;99.90
5130;DHT22;2583;50.946;6.954;2023-04-01T02:25:33;11.10;99.90
5130;DHT22;2583;50.946;6.954;2023-04-01T02:28:01;11.10;99.90
5130;DHT22;2583;50.946;6.954;2023-04-01T02:30:32;11.10;99.90
5130;DHT22;2583;50.946;6.954;2023-04-01T02:33:01;11.00;99.90
5130;DHT22;2583;50.946;6.954;2023-04-01T02:35:29;11.00;99.90
5130;DHT22;2583;50.946;6.954;2023-04-01T02:37:56;11.00;99.90
5130;DHT22;2583;50.946;6.954;2023-04-01T02:40:23;10.90;99.90
5130;DHT22;2583;50.946;6.954;2023-04-01T02:42:50;10.90;99.90
5130;DHT22;2583;50.946;6.954;2023-04-01T02:45:17;10.90;99.90
5130;DHT22;2583;50.946;6.954;2023-04-01T02:47:44;10.90;99.90
5130;DHT22;2583;50.946;6.954;2023-04-01T02:50:11;10.90;99.90
5130;DHT22;2583;50.946;6.954;2023-04-01T02:52:38;10.90;99.90
5130;DHT22;2583;50.946;6.954;2023-04-01T02:55:07;10.80;99.90
5130;DHT22;2583;50.946;6.954;2023-04-01T02:57:34;10.90;99.90
5130;DHT22;2583;50.946;6.954;2023-04-01T03:00:00;10.90;99.90
5130;DHT22;2583;50.946;6.954;2023-04-01T03:02:27;10.90;99.90
5130;DHT22;2583;50.946;6.954;2023-04-01T03:04:54;10.90;99.90
5130;DHT22;2583;50.946;6.954;2023-04-01T03:07:21;10.90;99.90
5130;DHT22;2583;50.946;6.954;2023-04-01T03:09:48;10.90;99.90
5130;DHT22;2583;50.946;6.954;2023-04-01T03:12:14;10.90;99.90
5130;DHT22;2583;50.946;6.954;2023-04-01T03:14:42;11.00;99.90
5130;DHT22;2583;50.946;6.954;2023-04-01T03:17:08;11.00;99.90
5130;DHT22;2583;50.946;6.954;2023-04-01T03:19:35;10.90;99.90
5130;DHT22;2583;50.946;6.954;2023-04-01T03:22:02;10.90;99.90
5130;DHT22;2583;50.946;6.954;2023-04-01T03:24:28;10.90;99.90
5130;DHT22;2583;50.946;6.954;2023-04-01T03:26:55;11.00;99.90
5130;DHT22;2583;50.946;6.954;2023-04-01T03:29:22;11.00;99.90
5130;DHT22;2583;50.946;6.954;2023-04-01T03:31:49;11.00;99.90
5130;DHT22;2583;50.946;6.954;2023-04-01T03:34:16;11.00;99.90
5130;DHT22;2583;50.946;6.954;2023-04-01T03:36:43;10.90;99.90
5130;DHT22;2583;50.946;6.954;2023-04-01T03:39:10;10.90;99.90
5130;DHT22;2583;50.946;6.954;2023-04-01T03:41:37;10.90;99.90
5130;DHT22;2583;50.946;6.954;2023-04-01T03:44:04;10.90;99.90
5130;DHT22;2583;50.946;6.954;2023-04-01T03:46:31;10.90;99.90
5130;DHT22;2583;50.946;6.954;2023-04-01T03:48:58;11.00;99.90
5130;DHT22;2583;50.946;6.954;2023-04-01T03:51:25;11.00;99.90
5130;DHT22;2583;50.946;6.954;2023-04-01T03:53:52;10.90;99.90
5130;DHT22;2583;50.946;6.954;2023-04-01T03:56:19;10.90;99.90
5130;DHT22;2583;50.946;6.954;2023-04-01T03:58:45;10.90;99.90
5130;DHT22;2583;50.946;6.954;2023-04-01T04:01:20;10.90;99.90
5130;DHT22;2583;50.946;6.954;2023-04-01T04:03:48;11.00;99.90
5130;DHT22;2583;50.946;6.954;2023-04-01T04:06:17;11.00;99.90
5130;DHT22;2583;50.946;6.954;2023-04-01T04:08:45;11.00;99.90
5130;DHT22;2583;50.946;6.954;2023-04-01T04:11:12;11.00;99.90
5130;DHT22;2583;50.946;6.954;2023-04-01T04:13:39;11.00;99.90
5130;DHT22;2583;50.946;6.954;2023-04-01T04:16:06;11.10;99.90
5130;DHT22;2583;50.946;6.954;2023-04-01T04:18:33;11.10;99.90
5130;DHT22;2583;50.946;6.954;2023-04-01T04:21:00;11.10;99.90
5130;DHT22;2583;50.946;6.954;2023-04-01T04:23:27;11.10;99.90
5130;DHT22;2583;50.946;6.954;2023-04-01T04:26:01;11.10;99.90
5130;DHT22;2583;50.946;6.954;2023-04-01T04:28:29;11.10;99.90
5130;DHT22;2583;50.946;6.954;2023-04-01T04:30:56;11.10;99.90
5130;DHT22;2583;50.946;6.954;2023-04-01T04:33:23;11.10;99.90
5130;DHT22;2583;50.946;6.954;2023-04-01T04:35:51;11.10;99.90
5130;DHT22;2583;50.946;6.954;2023-04-01T04:38:18;11.10;99.90
5130;DHT22;2583;50.946;6.954;2023-04-01T04:40:45;11.00;99.90
5130;DHT22;2583;50.946;6.954;2023-04-01T04:43:13;11.00;99.90
5130;DHT22;2583;50.946;6.954;2023-04-01T04:45:40;11.00;99.90
5130;DHT22;2583;50.946;6.954;2023-04-01T04:48:09;11.00;99.90
5130;DHT22;2583;50.946;6.954;2023-04-01T04:50:36;11.00;99.90
5130;DHT22;2583;50.946;6.954;2023-04-01T04:53:03;11.00;99.90
5130;DHT22;2583;50.946;6.954;2023-04-01T04:55:30;11.00;99.90
5130;DHT22;2583;50.946;6.954;2023-04-01T04:57:57;10.90;99.90
5130;DHT22;2583;50.946;6.954;2023-04-01T05:00:24;10.90;99.90
5130;DHT22;2583;50.946;6.954;2023-04-01T05:02:51;10.90;99.90
5130;DHT22;2583;50.946;6.954;2023-04-01T05:05:18;10.90;99.90
5130;DHT22;2583;50.946;6.954;2023-04-01T05:07:44;10.80;99.90
5130;DHT22;2583;50.946;6.954;2023-04-01T05:10:11;10.90;99.90
5130;DHT22;2583;50.946;6.954;2023-04-01T05:12:38;10.90;99.90
5130;DHT22;2583;50.946;6.954;2023-04-01T05:15:06;10.90;99.90
5130;DHT22;2583;50.946;6.954;2023-04-01T05:17:33;10.80;99.90
5130;DHT22;2583;50.946;6.954;2023-04-01T05:20:00;10.80;99.90
5130;DHT22;2583;50.946;6.954;2023-04-01T05:22:27;10.90;99.90
5130;DHT22;2583;50.946;6.954;2023-04-01T05:24:54;10.80;99.90
5130;DHT22;2583;50.946;6.954;2023-04-01T05:27:20;10.90;99.90
5130;DHT22;2583;50.946;6.954;2023-04-01T05:29:47;10.80;99.90
5130;DHT22;2583;50.946;6.954;2023-04-01T05:32:14;10.80;99.90
5130;DHT22;2583;50.946;6.954;2023-04-01T05:34:41;10.80;99.90
5130;DHT22;2583;50.946;6.954;2023-04-01T05:37:08;10.80;99.90
5130;DHT22;2583;50.946;6.954;2023-04-01T05:39:39;10.80;99.90
5130;DHT22;2583;50.946;6.954;2023-04-01T05:42:06;10.70;99.90
5130;DHT22;2583;50.946;6.954;2023-04-01T05:44:34;10.70;99.90
5130;DHT22;2583;50.946;6.954;2023-04-01T05:47:03;10.70;99.90
5130;DHT22;2583;50.946;6.954;2023-04-01T05:49:30;10.70;99.90
5130;DHT22;2583;50.946;6.954;2023-04-01T05:51:57;10.70;99.90
5130;DHT22;2583;50.946;6.954;2023-04-01T05:54:24;10.70;99.90
5130;DHT22;2583;50.946;6.954;2023-04-01T05:56:51;10.70;99.90
5130;DHT22;2583;50.946;6.954;2023-04-01T05:59:18;10.60;99.90
5130;DHT22;2583;50.946;6.954;2023-04-01T06:01:44;10.70;99.90
5130;DHT22;2583;50.946;6.954;2023-04-01T06:04:14;10.70;99.90
5130;DHT22;2583;50.946;6.954;2023-04-01T06:06:42;10.60;99.90
5130;DHT22;2583;50.946;6.954;2023-04-01T06:09:17;10.60;99.90
5130;DHT22;2583;50.946;6.954;2023-04-01T06:12:10;10.60;99.90
5130;DHT22;2583;50.946;6.954;2023-04-01T06:15:03;10.50;99.90
5130;DHT22;2583;50.946;6.954;2023-04-01T06:18:13;10.50;99.90
5130;DHT22;2583;50.946;6.954;2023-04-01T06:26:07;10.60;99.90
5130;DHT22;2583;50.946;6.954;2023-04-01T06:29:17;10.70;99.90
5130;DHT22;2583;50.946;6.954;2023-04-01T06:43:24;10.90;99.90
5130;DHT22;2583;50.946;6.954;2023-04-01T06:49:02;10.90;99.90
5130;DHT22;2583;50.946;6.954;2023-04-01T06:54:40;10.90;99.90
5130;DHT22;2583;50.946;6.954;2023-04-01T07:00:00;11.00;99.90
5130;DHT22;2583;50.946;6.954;2023-04-01T07:02:39;11.00;99.90
5130;DHT22;2583;50.946;6.954;2023-04-01T07:05:08;11.00;99.90
5130;DHT22;2583;50.946;6.954;2023-04-01T07:10:19;11.00;99.90
5130;DHT22;2583;50.946;6.954;2023-04-01T07:12:54;10.90;99.90
5130;DHT22;2583;50.946;6.954;2023-04-01T07:15:33;10.90;99.90
5130;DHT22;2583;50.946;6.954;2023-04-01T07:18:17;10.90;99.90
5130;DHT22;2583;50.946;6.954;2023-04-01T07:20:46;10.90;99.90
5130;DHT22;2583;50.946;6.954;2023-04-01T07:25:53;10.90;99.90
5130;DHT22;2583;50.946;6.954;2023-04-01T07:28:22;11.00;99.90
5130;DHT22;2583;50.946;6.954;2023-04-01T07:36:43;11.00;99.90
5130;DHT22;2583;50.946;6.954;2023-04-01T07:41:51;10.90;99.90
5130;DHT22;2583;50.946;6.954;2023-04-01T07:44:26;10.90;99.90
5130;DHT22;2583;50.946;6.954;2023-04-01T07:50:13;10.90;99.90
5130;DHT22;2583;50.946;6.954;2023-04-01T07:58:00;10.90;99.90
5130;DHT22;2583;50.946;6.954;2023-04-01T08:00:42;11.00;99.90
5130;DHT22;2583;50.946;6.954;2023-04-01T08:06:18;11.00;99.90
5130;DHT22;2583;50.946;6.954;2023-04-01T08:09:00;11.10;99.90
5130;DHT22;2583;50.946;6.954;2023-04-01T08:11:39;11.10;99.90
5130;DHT22;2583;50.946;6.954;2023-04-01T08:20:08;10.90;99.90
5130;DHT22;2583;50.946;6.954;2023-04-01T08:22:50;10.90;99.90
5130;DHT22;2583;50.946;6.954;2023-04-01T08:25:22;10.90;99.90
5130;DHT22;2583;50.946;6.954;2023-04-01T08:27:59;10.90;99.90
5130;DHT22;2583;50.946;6.954;2023-04-01T08:38:32;11.00;99.90
5130;DHT22;2583;50.946;6.954;2023-04-01T08:41:00;10.90;99.90
5130;DHT22;2583;50.946;6.954;2023-04-01T08:43:54;10.90;99.90
5130;DHT22;2583;50.946;6.954;2023-04-01T08:46:48;11.00;99.90
5130;DHT22;2583;50.946;6.954;2023-04-01T08:52:28;11.00;99.90
5130;DHT22;2583;50.946;6.954;2023-04-01T09:00:32;11.10;99.90
5130;DHT22;2583;50.946;6.954;2023-04-01T09:03:10;11.20;99.90
5130;DHT22;2583;50.946;6.954;2023-04-01T09:08:51;11.20;99.90
5130;DHT22;2583;50.946;6.954;2023-04-01T09:11:44;11.20;99.90
5130;DHT22;2583;50.946;6.954;2023-04-01T09:17:28;11.30;99.90
5130;DHT22;2583;50.946;6.954;2023-04-01T09:20:27;11.30;99.90
5130;DHT22;2583;50.946;6.954;2023-04-01T09:32:11;11.10;99.90
5130;DHT22;2583;50.946;6.954;2023-04-01T09:40:40;11.20;99.90
5130;DHT22;2583;50.946;6.954;2023-04-01T09:43:43;11.10;99.90
5130;DHT22;2583;50.946;6.954;2023-04-01T09:54:32;11.10;99.90
5130;DHT22;2583;50.946;6.954;2023-04-01T10:11:56;11.40;99.90
5130;DHT22;2583;50.946;6.954;2023-04-01T10:14:43;11.40;99.90
5130;DHT22;2583;50.946;6.954;2023-04-01T10:20:54;11.50;99.90
5130;DHT22;2583;50.946;6.954;2023-04-01T10:29:31;11.60;99.90
5130;DHT22;2583;50.946;6.954;2023-04-01T10:38:19;11.60;99.90
5130;DHT22;2583;50.946;6.954;2023-04-01T10:41:21;11.60;99.90
5130;DHT22;2583;50.946;6.954;2023-04-01T10:47:26;11.60;99.90
5130;DHT22;2583;50.946;6.954;2023-04-01T11:14:13;12.30;99.90
5130;DHT22;2583;50.946;6.954;2023-04-01T11:16:47;12.30;99.90
5130;DHT22;2583;50.946;6.954;2023-04-01T11:19:49;12.20;99.90
5130;DHT22;2583;50.946;6.954;2023-04-01T11:22:30;12.30;99.90
5130;DHT22;2583;50.946;6.954;2023-04-01T11:28:08;12.20;99.90
5130;DHT22;2583;50.946;6.954;2023-04-01T11:31:19;12.30;99.90
5130;DHT22;2583;50.946;6.954;2023-04-01T11:33:56;12.30;99.90
5130;DHT22;2583;50.946;6.954;2023-04-01T11:44:43;12.40;99.90
5130;DHT22;2583;50.946;6.954;2023-04-01T11:47:43;12.30;99.90
5130;DHT22;2583;50.946;6.954;2023-04-01T11:50:29;12.30;99.90
5130;DHT22;2583;50.946;6.954;2023-04-01T12:01:04;12.40;99.90
5130;DHT22;2583;50.946;6.954;2023-04-01T12:18:33;12.40;99.90
5130;DHT22;2583;50.946;6.954;2023-04-01T12:35:10;12.60;99.90
5130;DHT22;2583;50.946;6.954;2023-04-01T12:45:42;12.60;99.90
5130;DHT22;2583;50.946;6.954;2023-04-01T12:51:29;12.60;99.90
5130;DHT22;2583;50.946;6.954;2023-04-01T12:57:10;12.50;99.90
5130;DHT22;2583;50.946;6.954;2023-04-01T13:00:12;12.40;99.90
5130;DHT22;2583;50.946;6.954;2023-04-01T13:11:27;12.50;99.90
5130;DHT22;2583;50.946;6.954;2023-04-01T13:28:50;12.60;99.90
5130;DHT22;2583;50.946;6.954;2023-04-01T13:37:17;12.60;99.90
5130;DHT22;2583;50.946;6.954;2023-04-01T13:42:57;12.70;99.90
5130;DHT22;2583;50.946;6.954;2023-04-01T13:45:42;12.60;99.90
5130;DHT22;2583;50.946;6.954;2023-04-01T13:48:42;12.50;99.90
5130;DHT22;2583;50.946;6.954;2023-04-01T14:04:34;12.30;99.90
5130;DHT22;2583;50.946;6.954;2023-04-01T14:10:23;12.30;99.90
5130;DHT22;2583;50.946;6.954;2023-04-01T14:13:29;12.30;99.90
5130;DHT22;2583;50.946;6.954;2023-04-01T14:21:40;12.30;99.90
5130;DHT22;2583;50.946;6.954;2023-04-01T14:35:38;12.00;99.90
5130;DHT22;2583;50.946;6.954;2023-04-01T14:40:56;12.00;99.90
5130;DHT22;2583;50.946;6.954;2023-04-01T14:49:42;11.70;99.90
5130;DHT22;2583;50.946;6.954;2023-04-01T14:52:32;11.60;99.90
5130;DHT22;2583;50.946;6.954;2023-04-01T14:58:16;11.80;99.90
5130;DHT22;2583;50.946;6.954;2023-04-01T15:01:24;11.90;99.90
5130;DHT22;2583;50.946;6.954;2023-04-01T15:23:25;12.00;99.90
5130;DHT22;2583;50.946;6.954;2023-04-01T15:26:31;12.00;99.90
5130;DHT22;2583;50.946;6.954;2023-04-01T15:29:01;12.00;99.90
5130;DHT22;2583;50.946;6.954;2023-04-01T15:31:48;12.10;99.90
5130;DHT22;2583;50.946;6.954;2023-04-01T15:37:14;12.20;99.90
5130;DHT22;2583;50.946;6.954;2023-04-01T15:45:35;12.20;99.90
5130;DHT22;2583;50.946;6.954;2023-04-01T15:53:34;12.30;99.90
5130;DHT22;2583;50.946;6.954;2023-04-01T16:01:42;12.10;99.90
5130;DHT22;2583;50.946;6.954;2023-04-01T16:12:35;11.90;99.90
5130;DHT22;2583;50.946;6.954;2023-04-01T16:26:12;12.00;99.90
5130;DHT22;2583;50.946;6.954;2023-04-01T16:31:42;12.00;99.90
5130;DHT22;2583;50.946;6.954;2023-04-01T16:34:26;12.00;99.90
5130;DHT22;2583;50.946;6.954;2023-04-01T16:37:27;11.90;99.90
5130;DHT22;2583;50.946;6.954;2023-04-01T16:43:20;11.80;99.90
5130;DHT22;2583;50.946;6.954;2023-04-01T16:51:41;11.60;99.90
5130;DHT22;2583;50.946;6.954;2023-04-01T16:54:45;11.50;99.90
5130;DHT22;2583;50.946;6.954;2023-04-01T16:57:19;11.50;99.90
5130;DHT22;2583;50.946;6.954;2023-04-01T17:02:38;11.50;99.90
5130;DHT22;2583;50.946;6.954;2023-04-01T17:05:11;11.60;99.90
5130;DHT22;2583;50.946;6.954;2023-04-01T17:07:59;11.50;99.90
5130;DHT22;2583;50.946;6.954;2023-04-01T17:11:10;11.60;99.90
5130;DHT22;2583;50.946;6.954;2023-04-01T17:16:44;11.60;99.90
5130;DHT22;2583;50.946;6.954;2023-04-01T17:19:48;11.60;99.90
5130;DHT22;2583;50.946;6.954;2023-04-01T17:22:44;11.60;99.90
5130;DHT22;2583;50.946;6.954;2023-04-01T17:25:38;11.50;99.90
5130;DHT22;2583;50.946;6.954;2023-04-01T17:28:24;11.50;99.90
5130;DHT22;2583;50.946;6.954;2023-04-01T17:37:02;11.30;99.90
5130;DHT22;2583;50.946;6.954;2023-04-01T17:42:46;11.10;99.90
5130;DHT22;2583;50.946;6.954;2023-04-01T17:45:29;11.10;99.90
5130;DHT22;2583;50.946;6.954;2023-04-01T17:48:17;11.10;99.90
5130;DHT22;2583;50.946;6.954;2023-04-01T17:56:18;11.00;99.90
5130;DHT22;2583;50.946;6.954;2023-04-01T17:58:52;10.90;99.90
5130;DHT22;2583;50.946;6.954;2023-04-01T18:01:43;11.00;99.90
5130;DHT22;2583;50.946;6.954;2023-04-01T18:18:49;11.00;99.90
5130;DHT22;2583;50.946;6.954;2023-04-01T18:26:43;10.90;99.90
5130;DHT22;2583;50.946;6.954;2023-04-01T18:29:31;10.90;99.90
5130;DHT22;2583;50.946;6.954;2023-04-01T18:38:31;10.80;99.90
5130;DHT22;2583;50.946;6.954;2023-04-01T18:41:12;10.80;99.90
5130;DHT22;2583;50.946;6.954;2023-04-01T18:43:53;10.70;99.90
5130;DHT22;2583;50.946;6.954;2023-04-01T18:46:53;10.80;99.90
5130;DHT22;2583;50.946;6.954;2023-04-01T18:51:57;10.70;99.90
5130;DHT22;2583;50.946;6.954;2023-04-01T18:54:33;10.70;99.90
5130;DHT22;2583;50.946;6.954;2023-04-01T18:57:16;10.70;99.90
5130;DHT22;2583;50.946;6.954;2023-04-01T19:02:30;10.70;99.90
5130;DHT22;2583;50.946;6.954;2023-04-01T19:05:18;10.80;99.90
5130;DHT22;2583;50.946;6.954;2023-04-01T19:07:49;10.80;99.90
5130;DHT22;2583;50.946;6.954;2023-04-01T19:13:31;10.70;99.90
5130;DHT22;2583;50.946;6.954;2023-04-01T19:24:04;10.70;99.90
5130;DHT22;2583;50.946;6.954;2023-04-01T19:26:42;10.70;99.90
5130;DHT22;2583;50.946;6.954;2023-04-01T19:31:55;10.70;99.90
5130;DHT22;2583;50.946;6.954;2023-04-01T19:34:50;10.70;99.90
5130;DHT22;2583;50.946;6.954;2023-04-01T19:45:44;10.70;99.90
5130;DHT22;2583;50.946;6.954;2023-04-01T19:48:36;10.60;99.90
5130;DHT22;2583;50.946;6.954;2023-04-01T19:54:12;10.60;99.90
5130;DHT22;2583;50.946;6.954;2023-04-01T19:56:46;10.60;99.90
5130;DHT22;2583;50.946;6.954;2023-04-01T19:59:17;10.70;99.90
5130;DHT22;2583;50.946;6.954;2023-04-01T20:02:14;10.60;99.90
5130;DHT22;2583;50.946;6.954;2023-04-01T20:04:49;10.60;99.90
5130;DHT22;2583;50.946;6.954;2023-04-01T20:07:38;10.60;99.90
5130;DHT22;2583;50.946;6.954;2023-04-01T20:10:25;10.60;99.90
5130;DHT22;2583;50.946;6.954;2023-04-01T20:13:19;10.60;99.90
5130;DHT22;2583;50.946;6.954;2023-04-01T20:16:06;10.60;99.90
5130;DHT22;2583;50.946;6.954;2023-04-01T20:18:41;10.60;99.90
5130;DHT22;2583;50.946;6.954;2023-04-01T20:23:53;10.60;99.90
5130;DHT22;2583;50.946;6.954;2023-04-01T20:26:27;10.50;99.90
5130;DHT22;2583;50.946;6.954;2023-04-01T20:40:37;10.40;99.90
5130;DHT22;2583;50.946;6.954;2023-04-01T20:45:53;10.40;99.90
5130;DHT22;2583;50.946;6.954;2023-04-01T20:51:14;10.40;99.90
5130;DHT22;2583;50.946;6.954;2023-04-01T20:59:44;10.40;99.90
5130;DHT22;2583;50.946;6.954;2023-04-01T21:27:06;10.40;99.90
5130;DHT22;2583;50.946;6.954;2023-04-01T21:32:31;10.40;99.90
5130;DHT22;2583;50.946;6.954;2023-04-01T21:35:22;10.40;99.90
5130;DHT22;2583;50.946;6.954;2023-04-01T21:38:00;10.40;99.90
5130;DHT22;2583;50.946;6.954;2023-04-01T22:11:22;10.30;99.90
5130;DHT22;2583;50.946;6.954;2023-04-01T22:14:03;10.40;99.90
5130;DHT22;2583;50.946;6.954;2023-04-01T22:16:49;10.40;99.90
5130;DHT22;2583;50.946;6.954;2023-04-01T22:22:02;10.40;99.90
5130;DHT22;2583;50.946;6.954;2023-04-01T22:24:41;10.40;99.90
5130;DHT22;2583;50.946;6.954;2023-04-01T22:32:46;10.40;99.90
5130;DHT22;2583;50.946;6.954;2023-04-01T22:43:38;10.40;99.90
5130;DHT22;2583;50.946;6.954;2023-04-01T22:49:08;10.40;99.90
5130;DHT22;2583;50.946;6.954;2023-04-01T22:52:04;10.40;99.90
5130;DHT22;2583;50.946;6.954;2023-04-01T22:54:41;10.40;99.90
5130;DHT22;2583;50.946;6.954;2023-04-01T22:57:14;10.50;99.90
5130;DHT22;2583;50.946;6.954;2023-04-01T23:00:07;10.50;99.90
5130;DHT22;2583;50.946;6.954;2023-04-01T23:05:26;10.50;99.90
5130;DHT22;2583;50.946;6.954;2023-04-01T23:10:52;10.50;99.90
5130;DHT22;2583;50.946;6.954;2023-04-01T23:13:27;10.50;99.90
5130;DHT22;2583;50.946;6.954;2023-04-01T23:15:56;10.50;99.90
5130;DHT22;2583;50.946;6.954;2023-04-01T23:18:37;10.50;99.90
5130;DHT22;2583;50.946;6.954;2023-04-01T23:28:57;10.60;99.90
5130;DHT22;2583;50.946;6.954;2023-04-01T23:31:35;10.60;99.90
5130;DHT22;2583;50.946;6.954;2023-04-01T23:36:46;10.60;99.90
5130;DHT22;2583;50.946;6.954;2023-04-01T23:42:25;10.60;99.90
5130;DHT22;2583;50.946;6.954;2023-04-01T23:44:58;10.60;99.90
5130;DHT22;2583;50.946;6.954;2023-04-01T23:47:31;10.60;99.90
5130;DHT22;2583;50.946;6.954;2023-04-01T23:50:14;10.60;99.90
5130;DHT22;2583;50.946;6.954;2023-04-01T23:52:48;10.60;99.90
5130;DHT22;2583;50.946;6.954;2023-04-01T23:55:25;10.50;99.90
5130;DHT22;2583;50.946;6.954;2023-04-01T23:58:06;10.50;99.90
